sensor_id;sensor_type;location;lat;lon;timestamp;temperature;humidity
78490;DHT22;67776;52.012;4.736;2023-07-09T00:00:50;22.57;79.01
78490;DHT22;67776;52.012;4.736;2023-07-09T00:03:17;22.50;78.46
78490;DHT22;67776;52.012;4.736;2023-07-09T00:05:45;22.60;78.01
78490;DHT22;67776;52.012;4.736;2023-07-09T00:08:25;22.57;78.55
78490;DHT22;67776;52.012;4.736;2023-07-09T00:10:53;22.68;77.73
78490;DHT22;67776;52.012;4.736;2023-07-09T00:13:18;22.40;79.32
78490;DHT22;67776;52.012;4.736;2023-07-09T00:15:44;22.44;79.05
78490;DHT22;67776;52.012;4.736;2023-07-09T00:18:09;22.34;79.54
78490;DHT22;67776;52.012;4.736;2023-07-09T00:20:35;22.40;78.38
78490;DHT22;67776;52.012;4.736;2023-07-09T00:23:00;22.32;79.68
78490;DHT22;67776;52.012;4.736;2023-07-09T00:25:30;22.45;78.78
78490;DHT22;67776;52.012;4.736;2023-07-09T00:27:56;22.43;79.04
78490;DHT22;67776;52.012;4.736;2023-07-09T00:30:22;22.52;78.26
78490;DHT22;67776;52.012;4.736;2023-07-09T00:32:49;22.52;78.08
78490;DHT22;67776;52.012;4.736;2023-07-09T00:35:14;22.60;77.18
78490;DHT22;67776;52.012;4.736;2023-07-09T00:37:41;22.61;78.42
78490;DHT22;67776;52.012;4.736;2023-07-09T00:40:13;22.52;78.14
78490;DHT22;67776;52.012;4.736;2023-07-09T00:42:43;22.52;79.22
78490;DHT22;67776;52.012;4.736;2023-07-09T00:45:18;22.48;79.68
78490;DHT22;67776;52.012;4.736;2023-07-09T00:48:00;22.34;80.19
78490;DHT22;67776;52.012;4.736;2023-07-09T00:53:01;22.03;80.97
78490;DHT22;67776;52.012;4.736;2023-07-09T00:55:35;22.12;79.91
78490;DHT22;67776;52.012;4.736;2023-07-09T00:58:06;22.17;79.26
78490;DHT22;67776;52.012;4.736;2023-07-09T01:00:39;22.12;79.81
78490;DHT22;67776;52.012;4.736;2023-07-09T01:03:21;22.07;80.19
78490;DHT22;67776;52.012;4.736;2023-07-09T01:05:49;22.05;80.37
78490;DHT22;67776;52.012;4.736;2023-07-09T01:08:18;22.13;79.69
78490;DHT22;67776;52.012;4.736;2023-07-09T01:10:43;22.07;80.26
78490;DHT22;67776;52.012;4.736;2023-07-09T01:13:09;22.03;80.28
78490;DHT22;67776;52.012;4.736;2023-07-09T01:15:35;22.13;80.40
78490;DHT22;67776;52.012;4.736;2023-07-09T01:18:03;22.05;80.61
78490;DHT22;67776;52.012;4.736;2023-07-09T01:20:29;22.17;80.01
78490;DHT22;67776;52.012;4.736;2023-07-09T01:22:54;22.03;80.88
78490;DHT22;67776;52.012;4.736;2023-07-09T01:25:20;21.98;81.24
78490;DHT22;67776;52.012;4.736;2023-07-09T01:27:47;21.95;81.40
78490;DHT22;67776;52.012;4.736;2023-07-09T01:30:17;21.96;81.26
78490;DHT22;67776;52.012;4.736;2023-07-09T01:32:51;21.86;82.09
78490;DHT22;67776;52.012;4.736;2023-07-09T01:35:18;21.83;82.14
78490;DHT22;67776;52.012;4.736;2023-07-09T01:37:45;21.93;81.28
78490;DHT22;67776;52.012;4.736;2023-07-09T01:40:14;21.95;81.09
78490;DHT22;67776;52.012;4.736;2023-07-09T01:42:40;21.92;81.48
78490;DHT22;67776;52.012;4.736;2023-07-09T01:45:07;21.89;81.50
78490;DHT22;67776;52.012;4.736;2023-07-09T01:47:33;21.82;81.81
78490;DHT22;67776;52.012;4.736;2023-07-09T01:49:58;21.75;82.90
78490;DHT22;67776;52.012;4.736;2023-07-09T01:52:28;21.65;83.71
78490;DHT22;67776;52.012;4.736;2023-07-09T01:54:54;21.66;83.14
78490;DHT22;67776;52.012;4.736;2023-07-09T01:57:23;21.71;83.22
78490;DHT22;67776;52.012;4.736;2023-07-09T01:59:54;21.71;82.98
78490;DHT22;67776;52.012;4.736;2023-07-09T02:02:22;21.83;82.01
78490;DHT22;67776;52.012;4.736;2023-07-09T02:04:51;21.93;80.70
78490;DHT22;67776;52.012;4.736;2023-07-09T02:07:17;21.96;80.69
78490;DHT22;67776;52.012;4.736;2023-07-09T02:09:45;21.89;81.31
78490;DHT22;67776;52.012;4.736;2023-07-09T02:12:12;21.75;82.47
78490;DHT22;67776;52.012;4.736;2023-07-09T02:14:39;21.55;83.50
78490;DHT22;67776;52.012;4.736;2023-07-09T02:17:05;21.65;82.39
78490;DHT22;67776;52.012;4.736;2023-07-09T02:19:30;21.83;81.51
78490;DHT22;67776;52.012;4.736;2023-07-09T02:21:56;21.78;81.48
78490;DHT22;67776;52.012;4.736;2023-07-09T02:24:22;21.79;81.83
78490;DHT22;67776;52.012;4.736;2023-07-09T02:26:54;21.79;82.35
78490;DHT22;67776;52.012;4.736;2023-07-09T02:29:19;21.71;82.58
78490;DHT22;67776;52.012;4.736;2023-07-09T02:31:45;21.62;83.03
78490;DHT22;67776;52.012;4.736;2023-07-09T02:34:11;21.58;83.24
78490;DHT22;67776;52.012;4.736;2023-07-09T02:36:36;21.57;83.05
78490;DHT22;67776;52.012;4.736;2023-07-09T02:39:02;21.59;82.99
78490;DHT22;67776;52.012;4.736;2023-07-09T02:41:27;21.51;83.81
78490;DHT22;67776;52.012;4.736;2023-07-09T02:43:53;21.54;83.12
78490;DHT22;67776;52.012;4.736;2023-07-09T02:46:18;21.54;82.74
78490;DHT22;67776;52.012;4.736;2023-07-09T02:48:44;21.57;83.19
78490;DHT22;67776;52.012;4.736;2023-07-09T02:51:09;21.37;84.09
78490;DHT22;67776;52.012;4.736;2023-07-09T02:53:34;21.52;82.95
78490;DHT22;67776;52.012;4.736;2023-07-09T02:56:00;21.51;82.97
78490;DHT22;67776;52.012;4.736;2023-07-09T02:58:25;21.44;83.65
78490;DHT22;67776;52.012;4.736;2023-07-09T03:00:50;21.44;83.74
78490;DHT22;67776;52.012;4.736;2023-07-09T03:03:18;21.40;83.75
78490;DHT22;67776;52.012;4.736;2023-07-09T03:05:47;21.45;83.64
78490;DHT22;67776;52.012;4.736;2023-07-09T03:08:13;21.45;83.01
78490;DHT22;67776;52.012;4.736;2023-07-09T03:10:39;21.45;83.20
78490;DHT22;67776;52.012;4.736;2023-07-09T03:13:05;21.43;84.10
78490;DHT22;67776;52.012;4.736;2023-07-09T03:15:31;21.40;84.30
78490;DHT22;67776;52.012;4.736;2023-07-09T03:17:56;21.33;84.38
78490;DHT22;67776;52.012;4.736;2023-07-09T03:20:22;21.27;84.46
78490;DHT22;67776;52.012;4.736;2023-07-09T03:22:48;21.17;84.95
78490;DHT22;67776;52.012;4.736;2023-07-09T03:25:16;21.28;83.99
78490;DHT22;67776;52.012;4.736;2023-07-09T03:27:41;21.30;84.36
78490;DHT22;67776;52.012;4.736;2023-07-09T03:30:06;21.23;84.80
78490;DHT22;67776;52.012;4.736;2023-07-09T03:32:32;21.35;84.24
78490;DHT22;67776;52.012;4.736;2023-07-09T03:34:57;21.30;84.64
78490;DHT22;67776;52.012;4.736;2023-07-09T03:37:23;21.17;85.30
78490;DHT22;67776;52.012;4.736;2023-07-09T03:39:48;21.10;85.27
78490;DHT22;67776;52.012;4.736;2023-07-09T03:42:14;21.11;85.04
78490;DHT22;67776;52.012;4.736;2023-07-09T03:44:39;21.17;84.99
78490;DHT22;67776;52.012;4.736;2023-07-09T03:47:06;21.16;84.71
78490;DHT22;67776;52.012;4.736;2023-07-09T03:49:32;21.26;84.22
78490;DHT22;67776;52.012;4.736;2023-07-09T03:51:58;21.24;84.00
78490;DHT22;67776;52.012;4.736;2023-07-09T03:54:23;21.28;83.89
78490;DHT22;67776;52.012;4.736;2023-07-09T03:56:49;21.31;83.79
78490;DHT22;67776;52.012;4.736;2023-07-09T03:59:14;21.41;83.55
78490;DHT22;67776;52.012;4.736;2023-07-09T04:01:39;21.55;82.94
78490;DHT22;67776;52.012;4.736;2023-07-09T04:04:12;21.55;82.93
78490;DHT22;67776;52.012;4.736;2023-07-09T04:06:37;21.55;83.85
78490;DHT22;67776;52.012;4.736;2023-07-09T04:09:03;21.37;84.39
78490;DHT22;67776;52.012;4.736;2023-07-09T04:11:28;21.33;84.70
78490;DHT22;67776;52.012;4.736;2023-07-09T04:13:53;21.38;84.74
78490;DHT22;67776;52.012;4.736;2023-07-09T04:16:19;21.43;84.33
78490;DHT22;67776;52.012;4.736;2023-07-09T04:18:44;21.50;83.65
78490;DHT22;67776;52.012;4.736;2023-07-09T04:21:09;21.41;84.94
78490;DHT22;67776;52.012;4.736;2023-07-09T04:23:35;21.33;85.21
78490;DHT22;67776;52.012;4.736;2023-07-09T04:26:00;21.30;85.14
78490;DHT22;67776;52.012;4.736;2023-07-09T04:28:27;21.33;85.33
78490;DHT22;67776;52.012;4.736;2023-07-09T04:30:53;21.41;84.55
78490;DHT22;67776;52.012;4.736;2023-07-09T04:33:19;21.31;85.26
78490;DHT22;67776;52.012;4.736;2023-07-09T04:35:46;21.35;84.85
78490;DHT22;67776;52.012;4.736;2023-07-09T04:38:12;21.41;84.79
78490;DHT22;67776;52.012;4.736;2023-07-09T04:40:38;21.51;83.29
78490;DHT22;67776;52.012;4.736;2023-07-09T04:43:03;21.63;83.30
78490;DHT22;67776;52.012;4.736;2023-07-09T04:45:29;21.71;82.97
78490;DHT22;67776;52.012;4.736;2023-07-09T04:47:54;21.72;82.67
78490;DHT22;67776;52.012;4.736;2023-07-09T04:50:19;21.77;81.75
78490;DHT22;67776;52.012;4.736;2023-07-09T04:52:44;21.82;83.42
78490;DHT22;67776;52.012;4.736;2023-07-09T04:55:10;21.90;82.29
78490;DHT22;67776;52.012;4.736;2023-07-09T04:57:35;21.85;83.84
78490;DHT22;67776;52.012;4.736;2023-07-09T05:00:02;21.95;83.10
78490;DHT22;67776;52.012;4.736;2023-07-09T05:02:30;22.02;82.59
78490;DHT22;67776;52.012;4.736;2023-07-09T05:04:56;22.00;82.69
78490;DHT22;67776;52.012;4.736;2023-07-09T05:07:21;22.12;82.24
78490;DHT22;67776;52.012;4.736;2023-07-09T05:09:47;22.20;81.99
78490;DHT22;67776;52.012;4.736;2023-07-09T05:12:12;22.20;81.49
78490;DHT22;67776;52.012;4.736;2023-07-09T05:14:38;22.23;82.66
78490;DHT22;67776;52.012;4.736;2023-07-09T05:17:04;22.34;81.34
78490;DHT22;67776;52.012;4.736;2023-07-09T05:19:30;22.40;82.00
78490;DHT22;67776;52.012;4.736;2023-07-09T05:21:55;22.44;81.85
78490;DHT22;67776;52.012;4.736;2023-07-09T05:24:20;22.54;82.26
78490;DHT22;67776;52.012;4.736;2023-07-09T05:26:46;22.52;82.24
78490;DHT22;67776;52.012;4.736;2023-07-09T05:29:11;22.64;82.54
78490;DHT22;67776;52.012;4.736;2023-07-09T05:31:36;22.71;82.62
78490;DHT22;67776;52.012;4.736;2023-07-09T05:34:02;22.69;82.37
78490;DHT22;67776;52.012;4.736;2023-07-09T05:36:28;22.64;83.14
78490;DHT22;67776;52.012;4.736;2023-07-09T05:38:55;22.67;80.83
78490;DHT22;67776;52.012;4.736;2023-07-09T05:41:20;22.85;81.75
78490;DHT22;67776;52.012;4.736;2023-07-09T05:43:46;23.05;79.65
78490;DHT22;67776;52.012;4.736;2023-07-09T05:46:13;23.17;80.58
78490;DHT22;67776;52.012;4.736;2023-07-09T05:48:38;23.27;76.59
78490;DHT22;67776;52.012;4.736;2023-07-09T05:51:04;23.36;78.09
78490;DHT22;67776;52.012;4.736;2023-07-09T05:53:29;23.50;79.23
78490;DHT22;67776;52.012;4.736;2023-07-09T05:55:55;23.44;79.17
78490;DHT22;67776;52.012;4.736;2023-07-09T05:58:21;23.65;79.32
78490;DHT22;67776;52.012;4.736;2023-07-09T06:00:50;23.61;78.90
78490;DHT22;67776;52.012;4.736;2023-07-09T06:03:19;23.75;79.54
78490;DHT22;67776;52.012;4.736;2023-07-09T06:05:44;23.84;78.98
78490;DHT22;67776;52.012;4.736;2023-07-09T06:08:10;23.95;78.19
78490;DHT22;67776;52.012;4.736;2023-07-09T06:10:38;24.04;76.65
78490;DHT22;67776;52.012;4.736;2023-07-09T06:13:05;24.15;76.69
78490;DHT22;67776;52.012;4.736;2023-07-09T06:15:31;24.22;75.88
78490;DHT22;67776;52.012;4.736;2023-07-09T06:17:56;24.23;76.84
78490;DHT22;67776;52.012;4.736;2023-07-09T06:20:21;24.33;77.76
78490;DHT22;67776;52.012;4.736;2023-07-09T06:22:47;24.32;75.99
78490;DHT22;67776;52.012;4.736;2023-07-09T06:25:12;24.27;75.16
78490;DHT22;67776;52.012;4.736;2023-07-09T06:27:38;24.43;75.93
78490;DHT22;67776;52.012;4.736;2023-07-09T06:30:03;24.41;76.02
78490;DHT22;67776;52.012;4.736;2023-07-09T06:32:29;24.50;75.30
78490;DHT22;67776;52.012;4.736;2023-07-09T06:34:54;24.61;76.06
78490;DHT22;67776;52.012;4.736;2023-07-09T06:37:19;24.60;76.55
78490;DHT22;67776;52.012;4.736;2023-07-09T06:39:45;24.68;76.83
78490;DHT22;67776;52.012;4.736;2023-07-09T06:42:10;24.68;76.71
78490;DHT22;67776;52.012;4.736;2023-07-09T06:44:36;24.77;75.87
78490;DHT22;67776;52.012;4.736;2023-07-09T06:47:01;24.82;76.66
78490;DHT22;67776;52.012;4.736;2023-07-09T06:49:27;24.94;76.29
78490;DHT22;67776;52.012;4.736;2023-07-09T06:51:53;25.04;75.22
78490;DHT22;67776;52.012;4.736;2023-07-09T06:54:18;25.05;75.27
78490;DHT22;67776;52.012;4.736;2023-07-09T06:56:43;25.15;74.87
78490;DHT22;67776;52.012;4.736;2023-07-09T06:59:09;25.11;74.19
78490;DHT22;67776;52.012;4.736;2023-07-09T07:01:35;25.16;74.11
78490;DHT22;67776;52.012;4.736;2023-07-09T07:04:00;25.09;74.38
78490;DHT22;67776;52.012;4.736;2023-07-09T07:06:26;25.06;73.17
78490;DHT22;67776;52.012;4.736;2023-07-09T07:08:51;25.15;73.36
78490;DHT22;67776;52.012;4.736;2023-07-09T07:11:17;25.04;74.63
78490;DHT22;67776;52.012;4.736;2023-07-09T07:13:43;25.23;73.03
78490;DHT22;67776;52.012;4.736;2023-07-09T07:16:10;25.30;70.74
78490;DHT22;67776;52.012;4.736;2023-07-09T07:18:36;25.20;71.75
78490;DHT22;67776;52.012;4.736;2023-07-09T07:21:01;25.29;71.40
78490;DHT22;67776;52.012;4.736;2023-07-09T07:23:27;25.34;67.96
78490;DHT22;67776;52.012;4.736;2023-07-09T07:25:52;25.27;67.36
78490;DHT22;67776;52.012;4.736;2023-07-09T07:28:18;25.30;65.03
78490;DHT22;67776;52.012;4.736;2023-07-09T07:30:45;25.46;63.91
78490;DHT22;67776;52.012;4.736;2023-07-09T07:33:13;25.44;62.55
78490;DHT22;67776;52.012;4.736;2023-07-09T07:35:39;25.32;63.55
78490;DHT22;67776;52.012;4.736;2023-07-09T07:38:04;25.16;64.30
78490;DHT22;67776;52.012;4.736;2023-07-09T07:40:29;25.11;66.71
78490;DHT22;67776;52.012;4.736;2023-07-09T07:42:55;25.12;66.86
78490;DHT22;67776;52.012;4.736;2023-07-09T07:45:21;25.12;66.67
78490;DHT22;67776;52.012;4.736;2023-07-09T07:47:47;25.06;67.83
78490;DHT22;67776;52.012;4.736;2023-07-09T07:50:13;25.11;67.46
78490;DHT22;67776;52.012;4.736;2023-07-09T07:52:38;25.18;66.79
78490;DHT22;67776;52.012;4.736;2023-07-09T07:55:05;25.27;66.72
78490;DHT22;67776;52.012;4.736;2023-07-09T07:57:30;25.34;68.33
78490;DHT22;67776;52.012;4.736;2023-07-09T07:59:56;25.36;69.34
78490;DHT22;67776;52.012;4.736;2023-07-09T08:02:24;25.63;64.39
78490;DHT22;67776;52.012;4.736;2023-07-09T08:04:49;25.51;63.98
78490;DHT22;67776;52.012;4.736;2023-07-09T08:07:17;25.63;63.40
78490;DHT22;67776;52.012;4.736;2023-07-09T08:09:44;25.44;65.78
78490;DHT22;67776;52.012;4.736;2023-07-09T08:12:10;25.71;63.85
78490;DHT22;67776;52.012;4.736;2023-07-09T08:14:38;25.66;67.17
78490;DHT22;67776;52.012;4.736;2023-07-09T08:17:03;25.98;64.83
78490;DHT22;67776;52.012;4.736;2023-07-09T08:19:29;26.15;66.36
78490;DHT22;67776;52.012;4.736;2023-07-09T08:21:55;25.67;68.94
78490;DHT22;67776;52.012;4.736;2023-07-09T08:24:20;25.46;68.45
78490;DHT22;67776;52.012;4.736;2023-07-09T08:26:46;25.70;68.62
78490;DHT22;67776;52.012;4.736;2023-07-09T08:29:11;25.97;67.34
78490;DHT22;67776;52.012;4.736;2023-07-09T08:31:37;26.31;64.24
78490;DHT22;67776;52.012;4.736;2023-07-09T08:34:06;26.32;64.54
78490;DHT22;67776;52.012;4.736;2023-07-09T08:36:32;26.02;66.47
78490;DHT22;67776;52.012;4.736;2023-07-09T08:38:58;25.97;67.10
78490;DHT22;67776;52.012;4.736;2023-07-09T08:41:35;26.16;65.38
78490;DHT22;67776;52.012;4.736;2023-07-09T08:44:35;26.36;66.79
78490;DHT22;67776;52.012;4.736;2023-07-09T08:47:18;26.40;66.81
78490;DHT22;67776;52.012;4.736;2023-07-09T08:49:58;26.77;63.52
78490;DHT22;67776;52.012;4.736;2023-07-09T08:52:33;27.41;60.36
78490;DHT22;67776;52.012;4.736;2023-07-09T08:57:40;28.57;56.48
78490;DHT22;67776;52.012;4.736;2023-07-09T09:00:16;28.69;57.47
78490;DHT22;67776;52.012;4.736;2023-07-09T09:02:56;28.18;58.50
78490;DHT22;67776;52.012;4.736;2023-07-09T09:05:24;28.84;56.31
78490;DHT22;67776;52.012;4.736;2023-07-09T09:07:58;29.05;55.56
78490;DHT22;67776;52.012;4.736;2023-07-09T09:10:46;28.87;55.32
78490;DHT22;67776;52.012;4.736;2023-07-09T09:13:15;28.90;55.71
78490;DHT22;67776;52.012;4.736;2023-07-09T09:15:43;29.52;54.17
78490;DHT22;67776;52.012;4.736;2023-07-09T09:18:39;28.45;59.12
78490;DHT22;67776;52.012;4.736;2023-07-09T09:23:45;28.38;58.77
78490;DHT22;67776;52.012;4.736;2023-07-09T09:26:34;28.91;56.86
78490;DHT22;67776;52.012;4.736;2023-07-09T09:29:10;29.05;57.31
78490;DHT22;67776;52.012;4.736;2023-07-09T09:31:36;29.00;56.17
78490;DHT22;67776;52.012;4.736;2023-07-09T09:34:01;28.76;55.75
78490;DHT22;67776;52.012;4.736;2023-07-09T09:36:27;29.96;56.92
78490;DHT22;67776;52.012;4.736;2023-07-09T09:38:53;29.65;54.58
78490;DHT22;67776;52.012;4.736;2023-07-09T09:41:24;29.10;57.51
78490;DHT22;67776;52.012;4.736;2023-07-09T09:43:54;29.77;54.09
78490;DHT22;67776;52.012;4.736;2023-07-09T09:46:22;30.48;52.99
78490;DHT22;67776;52.012;4.736;2023-07-09T09:48:54;30.46;54.18
78490;DHT22;67776;52.012;4.736;2023-07-09T09:51:23;30.76;55.69
78490;DHT22;67776;52.012;4.736;2023-07-09T09:54:00;30.90;54.12
78490;DHT22;67776;52.012;4.736;2023-07-09T09:56:29;31.30;50.33
78490;DHT22;67776;52.012;4.736;2023-07-09T09:58:57;30.31;53.26
78490;DHT22;67776;52.012;4.736;2023-07-09T10:01:28;30.86;52.60
78490;DHT22;67776;52.012;4.736;2023-07-09T10:03:57;31.15;50.54
78490;DHT22;67776;52.012;4.736;2023-07-09T10:06:47;31.51;50.93
78490;DHT22;67776;52.012;4.736;2023-07-09T10:12:04;32.06;48.49
78490;DHT22;67776;52.012;4.736;2023-07-09T10:19:49;30.93;51.78
78490;DHT22;67776;52.012;4.736;2023-07-09T10:30:42;32.89;47.12
78490;DHT22;67776;52.012;4.736;2023-07-09T10:33:13;31.17;52.51
78490;DHT22;67776;52.012;4.736;2023-07-09T10:36:01;32.31;47.88
78490;DHT22;67776;52.012;4.736;2023-07-09T10:41:18;32.61;48.10
78490;DHT22;67776;52.012;4.736;2023-07-09T10:44:08;31.96;49.96
78490;DHT22;67776;52.012;4.736;2023-07-09T10:46:38;31.89;51.17
78490;DHT22;67776;52.012;4.736;2023-07-09T10:49:05;31.76;49.74
78490;DHT22;67776;52.012;4.736;2023-07-09T10:51:37;32.25;49.09
78490;DHT22;67776;52.012;4.736;2023-07-09T10:56:34;33.54;46.41
78490;DHT22;67776;52.012;4.736;2023-07-09T11:01:48;30.86;55.67
78490;DHT22;67776;52.012;4.736;2023-07-09T11:04:20;31.63;50.68
78490;DHT22;67776;52.012;4.736;2023-07-09T11:06:53;32.21;48.83
78490;DHT22;67776;52.012;4.736;2023-07-09T11:09:26;32.95;47.46
78490;DHT22;67776;52.012;4.736;2023-07-09T11:11:55;33.58;46.92
78490;DHT22;67776;52.012;4.736;2023-07-09T11:14:43;33.88;45.91
78490;DHT22;67776;52.012;4.736;2023-07-09T11:17:17;32.05;49.35
78490;DHT22;67776;52.012;4.736;2023-07-09T11:19:48;32.51;50.82
78490;DHT22;67776;52.012;4.736;2023-07-09T11:22:22;33.57;46.47
78490;DHT22;67776;52.012;4.736;2023-07-09T11:25:03;32.89;48.22
78490;DHT22;67776;52.012;4.736;2023-07-09T11:27:30;33.00;47.75
78490;DHT22;67776;52.012;4.736;2023-07-09T11:30:03;32.16;52.26
78490;DHT22;67776;52.012;4.736;2023-07-09T11:32:46;31.73;53.95
78490;DHT22;67776;52.012;4.736;2023-07-09T11:35:25;31.11;57.07
78490;DHT22;67776;52.012;4.736;2023-07-09T11:37:51;32.24;53.20
78490;DHT22;67776;52.012;4.736;2023-07-09T11:40:18;32.80;49.98
78490;DHT22;67776;52.012;4.736;2023-07-09T11:45:27;31.90;56.49
78490;DHT22;67776;52.012;4.736;2023-07-09T11:48:01;32.25;50.44
78490;DHT22;67776;52.012;4.736;2023-07-09T11:50:52;31.57;54.62
78490;DHT22;67776;52.012;4.736;2023-07-09T11:53:33;31.37;51.79
78490;DHT22;67776;52.012;4.736;2023-07-09T11:56:00;32.13;53.72
78490;DHT22;67776;52.012;4.736;2023-07-09T11:58:25;32.19;51.46
78490;DHT22;67776;52.012;4.736;2023-07-09T12:00:53;31.96;50.64
78490;DHT22;67776;52.012;4.736;2023-07-09T12:03:23;32.07;51.05
78490;DHT22;67776;52.012;4.736;2023-07-09T12:05:52;31.72;50.05
78490;DHT22;67776;52.012;4.736;2023-07-09T12:08:28;31.48;51.62
78490;DHT22;67776;52.012;4.736;2023-07-09T12:10:58;31.48;51.03
78490;DHT22;67776;52.012;4.736;2023-07-09T12:13:26;31.90;51.87
78490;DHT22;67776;52.012;4.736;2023-07-09T12:15:52;31.89;50.93
78490;DHT22;67776;52.012;4.736;2023-07-09T12:18:17;31.44;53.77
78490;DHT22;67776;52.012;4.736;2023-07-09T12:20:51;31.79;52.90
78490;DHT22;67776;52.012;4.736;2023-07-09T12:23:29;31.76;50.08
78490;DHT22;67776;52.012;4.736;2023-07-09T12:25:59;31.24;51.90
78490;DHT22;67776;52.012;4.736;2023-07-09T12:28:26;31.17;50.95
78490;DHT22;67776;52.012;4.736;2023-07-09T12:30:52;31.42;50.80
78490;DHT22;67776;52.012;4.736;2023-07-09T12:33:19;31.06;51.83
78490;DHT22;67776;52.012;4.736;2023-07-09T12:35:46;30.82;53.23
78490;DHT22;67776;52.012;4.736;2023-07-09T12:38:23;30.68;51.51
78490;DHT22;67776;52.012;4.736;2023-07-09T12:40:50;30.04;51.80
78490;DHT22;67776;52.012;4.736;2023-07-09T12:43:28;29.18;53.70
78490;DHT22;67776;52.012;4.736;2023-07-09T12:45:54;29.05;54.59
78490;DHT22;67776;52.012;4.736;2023-07-09T12:48:25;28.63;57.50
78490;DHT22;67776;52.012;4.736;2023-07-09T12:50:55;28.29;58.81
78490;DHT22;67776;52.012;4.736;2023-07-09T12:53:23;28.90;58.17
78490;DHT22;67776;52.012;4.736;2023-07-09T12:55:51;28.86;57.31
78490;DHT22;67776;52.012;4.736;2023-07-09T12:58:22;27.61;61.56
78490;DHT22;67776;52.012;4.736;2023-07-09T13:00:50;27.61;60.32
78490;DHT22;67776;52.012;4.736;2023-07-09T13:03:18;27.07;63.00
78490;DHT22;67776;52.012;4.736;2023-07-09T13:05:54;26.35;64.69
78490;DHT22;67776;52.012;4.736;2023-07-09T13:08:20;26.65;62.19
78490;DHT22;67776;52.012;4.736;2023-07-09T13:10:45;26.60;62.15
78490;DHT22;67776;52.012;4.736;2023-07-09T13:13:19;26.65;63.16
78490;DHT22;67776;52.012;4.736;2023-07-09T13:15:52;26.56;62.77
78490;DHT22;67776;52.012;4.736;2023-07-09T13:18:22;26.06;63.35
78490;DHT22;67776;52.012;4.736;2023-07-09T13:20:47;26.59;64.30
78490;DHT22;67776;52.012;4.736;2023-07-09T13:23:27;26.83;63.55
78490;DHT22;67776;52.012;4.736;2023-07-09T13:25:53;26.98;61.76
78490;DHT22;67776;52.012;4.736;2023-07-09T13:28:21;27.25;61.53
78490;DHT22;67776;52.012;4.736;2023-07-09T13:30:50;28.07;62.05
78490;DHT22;67776;52.012;4.736;2023-07-09T13:33:16;27.42;61.86
78490;DHT22;67776;52.012;4.736;2023-07-09T13:35:43;27.53;60.11
78490;DHT22;67776;52.012;4.736;2023-07-09T13:38:17;27.69;60.61
78490;DHT22;67776;52.012;4.736;2023-07-09T13:40:44;27.18;62.03
78490;DHT22;67776;52.012;4.736;2023-07-09T13:43:32;27.07;61.17
78490;DHT22;67776;52.012;4.736;2023-07-09T13:45:59;26.77;61.68
78490;DHT22;67776;52.012;4.736;2023-07-09T13:48:26;25.57;64.24
78490;DHT22;67776;52.012;4.736;2023-07-09T13:50:53;25.18;67.28
78490;DHT22;67776;52.012;4.736;2023-07-09T13:53:23;25.05;68.12
78490;DHT22;67776;52.012;4.736;2023-07-09T13:55:49;25.42;65.60
78490;DHT22;67776;52.012;4.736;2023-07-09T13:58:24;24.70;68.49
78490;DHT22;67776;52.012;4.736;2023-07-09T14:00:54;24.41;68.05
78490;DHT22;67776;52.012;4.736;2023-07-09T14:03:24;24.43;68.04
78490;DHT22;67776;52.012;4.736;2023-07-09T14:05:50;23.95;69.01
78490;DHT22;67776;52.012;4.736;2023-07-09T14:08:16;24.56;67.19
78490;DHT22;67776;52.012;4.736;2023-07-09T14:10:42;24.51;68.04
78490;DHT22;67776;52.012;4.736;2023-07-09T14:13:16;24.32;68.19
78490;DHT22;67776;52.012;4.736;2023-07-09T14:15:42;24.36;67.78
78490;DHT22;67776;52.012;4.736;2023-07-09T14:18:18;24.49;67.17
78490;DHT22;67776;52.012;4.736;2023-07-09T14:20:44;24.20;68.71
78490;DHT22;67776;52.012;4.736;2023-07-09T14:23:11;23.74;71.15
78490;DHT22;67776;52.012;4.736;2023-07-09T14:25:37;23.57;72.08
78490;DHT22;67776;52.012;4.736;2023-07-09T14:28:07;22.69;76.04
78490;DHT22;67776;52.012;4.736;2023-07-09T14:30:34;22.10;82.41
78490;DHT22;67776;52.012;4.736;2023-07-09T14:32:59;21.79;85.30
78490;DHT22;67776;52.012;4.736;2023-07-09T14:35:25;21.13;88.99
78490;DHT22;67776;52.012;4.736;2023-07-09T14:37:53;20.55;89.26
78490;DHT22;67776;52.012;4.736;2023-07-09T14:40:20;20.58;91.16
78490;DHT22;67776;52.012;4.736;2023-07-09T14:42:46;20.69;90.86
78490;DHT22;67776;52.012;4.736;2023-07-09T14:45:20;20.56;90.20
78490;DHT22;67776;52.012;4.736;2023-07-09T14:47:47;20.83;92.22
78490;DHT22;67776;52.012;4.736;2023-07-09T14:50:13;21.04;92.65
78490;DHT22;67776;52.012;4.736;2023-07-09T14:52:40;21.34;92.16
78490;DHT22;67776;52.012;4.736;2023-07-09T14:55:12;21.50;93.33
78490;DHT22;67776;52.012;4.736;2023-07-09T14:57:38;21.74;89.93
78490;DHT22;67776;52.012;4.736;2023-07-09T15:00:03;21.78;86.95
78490;DHT22;67776;52.012;4.736;2023-07-09T15:02:34;21.88;87.45
78490;DHT22;67776;52.012;4.736;2023-07-09T15:05:02;21.89;87.57
78490;DHT22;67776;52.012;4.736;2023-07-09T15:07:27;22.16;88.07
78490;DHT22;67776;52.012;4.736;2023-07-09T15:09:56;22.61;89.74
78490;DHT22;67776;52.012;4.736;2023-07-09T15:12:26;22.65;85.62
78490;DHT22;67776;52.012;4.736;2023-07-09T15:15:40;22.52;85.70
78490;DHT22;67776;52.012;4.736;2023-07-09T15:17:40;22.24;87.30
78490;DHT22;67776;52.012;4.736;2023-07-09T15:20:15;22.14;88.87
78490;DHT22;67776;52.012;4.736;2023-07-09T15:22:42;22.14;86.31
78490;DHT22;67776;52.012;4.736;2023-07-09T15:25:13;21.79;90.07
78490;DHT22;67776;52.012;4.736;2023-07-09T15:27:38;21.96;88.82
78490;DHT22;67776;52.012;4.736;2023-07-09T15:30:14;21.90;89.17
78490;DHT22;67776;52.012;4.736;2023-07-09T15:32:40;21.79;90.06
78490;DHT22;67776;52.012;4.736;2023-07-09T15:35:06;21.83;88.40
78490;DHT22;67776;52.012;4.736;2023-07-09T15:37:31;21.78;89.23
78490;DHT22;67776;52.012;4.736;2023-07-09T15:39:56;21.71;87.69
78490;DHT22;67776;52.012;4.736;2023-07-09T15:42:22;21.86;90.20
78490;DHT22;67776;52.012;4.736;2023-07-09T15:44:47;21.92;89.42
78490;DHT22;67776;52.012;4.736;2023-07-09T15:47:17;21.89;86.88
78490;DHT22;67776;52.012;4.736;2023-07-09T15:49:44;21.96;88.63
78490;DHT22;67776;52.012;4.736;2023-07-09T15:52:10;22.17;85.70
78490;DHT22;67776;52.012;4.736;2023-07-09T15:54:35;22.52;85.85
78490;DHT22;67776;52.012;4.736;2023-07-09T15:57:01;22.45;88.12
78490;DHT22;67776;52.012;4.736;2023-07-09T15:59:28;22.20;85.45
78490;DHT22;67776;52.012;4.736;2023-07-09T16:01:54;22.29;83.31
78490;DHT22;67776;52.012;4.736;2023-07-09T16:04:19;22.00;84.43
78490;DHT22;67776;52.012;4.736;2023-07-09T16:06:45;21.99;87.89
78490;DHT22;67776;52.012;4.736;2023-07-09T16:09:11;22.14;86.37
78490;DHT22;67776;52.012;4.736;2023-07-09T16:11:37;22.07;87.62